sensor_id;sensor_type;location;lat;lon;timestamp;pressure;altitude;pressure_sealevel;temperature;humidity
30182;BME280;16990;49.056;9.240;2022-08-19T00:00:49;98274.22;;;20.78;76.80
30182;BME280;16990;49.056;9.240;2022-08-19T00:03:16;98274.09;;;20.84;76.66
30182;BME280;16990;49.056;9.240;2022-08-19T00:05:44;98270.56;;;20.83;76.67
30182;BME280;16990;49.056;9.240;2022-08-19T00:08:11;98271.50;;;20.78;77.32
30182;BME280;16990;49.056;9.240;2022-08-19T00:10:38;98277.41;;;20.80;76.91
30182;BME280;16990;49.056;9.240;2022-08-19T00:13:04;98278.53;;;20.79;77.45
30182;BME280;16990;49.056;9.240;2022-08-19T00:15:31;98280.72;;;20.69;77.87
30182;BME280;16990;49.056;9.240;2022-08-19T00:17:58;98267.31;;;20.72;77.48
30182;BME280;16990;49.056;9.240;2022-08-19T00:20:24;98263.94;;;20.67;77.84
30182;BME280;16990;49.056;9.240;2022-08-19T00:22:52;98267.50;;;20.53;78.37
30182;BME280;16990;49.056;9.240;2022-08-19T00:25:20;98265.47;;;20.59;78.22
30182;BME280;16990;49.056;9.240;2022-08-19T00:27:47;98281.75;;;20.59;78.29
30182;BME280;16990;49.056;9.240;2022-08-19T00:30:14;98274.34;;;20.51;78.94
30182;BME280;16990;49.056;9.240;2022-08-19T00:32:41;98282.44;;;20.65;77.93
30182;BME280;16990;49.056;9.240;2022-08-19T00:35:08;98267.09;;;20.91;76.75
30182;BME280;16990;49.056;9.240;2022-08-19T00:37:36;98269.50;;;20.93;76.45
30182;BME280;16990;49.056;9.240;2022-08-19T00:40:06;98266.06;;;20.78;77.15
30182;BME280;16990;49.056;9.240;2022-08-19T00:42:33;98270.09;;;20.58;77.84
30182;BME280;16990;49.056;9.240;2022-08-19T00:44:59;98259.25;;;20.58;78.01
30182;BME280;16990;49.056;9.240;2022-08-19T00:47:26;98252.94;;;20.80;77.83
30182;BME280;16990;49.056;9.240;2022-08-19T00:49:56;98236.56;;;20.63;77.95
30182;BME280;16990;49.056;9.240;2022-08-19T00:52:25;98235.28;;;20.60;78.28
30182;BME280;16990;49.056;9.240;2022-08-19T00:54:54;98232.56;;;20.92;76.89
30182;BME280;16990;49.056;9.240;2022-08-19T00:57:28;98236.53;;;20.86;76.54
30182;BME280;16990;49.056;9.240;2022-08-19T00:59:58;98243.84;;;20.54;78.17
30182;BME280;16990;49.056;9.240;2022-08-19T01:02:27;98255.63;;;20.49;78.58
30182;BME280;16990;49.056;9.240;2022-08-19T01:04:55;98261.41;;;20.48;78.80
30182;BME280;16990;49.056;9.240;2022-08-19T01:07:22;98262.34;;;20.52;78.85
30182;BME280;16990;49.056;9.240;2022-08-19T01:09:49;98267.31;;;20.50;78.93
30182;BME280;16990;49.056;9.240;2022-08-19T01:12:16;98265.47;;;20.59;78.79
30182;BME280;16990;49.056;9.240;2022-08-19T01:14:45;98273.63;;;20.59;78.77
30182;BME280;16990;49.056;9.240;2022-08-19T01:17:12;98283.75;;;20.67;78.24
30182;BME280;16990;49.056;9.240;2022-08-19T01:19:41;98280.53;;;20.65;78.53
30182;BME280;16990;49.056;9.240;2022-08-19T01:22:12;98274.94;;;20.62;78.87
30182;BME280;16990;49.056;9.240;2022-08-19T01:24:44;98262.16;;;20.62;78.97
30182;BME280;16990;49.056;9.240;2022-08-19T01:27:11;98262.00;;;20.67;79.21
30182;BME280;16990;49.056;9.240;2022-08-19T01:29:39;98263.59;;;20.68;78.64
30182;BME280;16990;49.056;9.240;2022-08-19T01:32:07;98270.16;;;20.67;78.56
30182;BME280;16990;49.056;9.240;2022-08-19T01:34:35;98272.88;;;20.67;78.35
30182;BME280;16990;49.056;9.240;2022-08-19T01:37:06;98278.31;;;20.67;78.65
30182;BME280;16990;49.056;9.240;2022-08-19T01:39:37;98266.31;;;20.68;78.68
30182;BME280;16990;49.056;9.240;2022-08-19T01:42:07;98270.47;;;20.66;79.04
30182;BME280;16990;49.056;9.240;2022-08-19T01:44:37;98265.81;;;20.66;78.80
30182;BME280;16990;49.056;9.240;2022-08-19T01:47:05;98268.59;;;20.75;78.72
30182;BME280;16990;49.056;9.240;2022-08-19T01:49:32;98273.66;;;20.99;77.52
30182;BME280;16990;49.056;9.240;2022-08-19T01:52:00;98265.34;;;20.95;77.77
30182;BME280;16990;49.056;9.240;2022-08-19T01:54:27;98267.72;;;20.88;77.76
30182;BME280;16990;49.056;9.240;2022-08-19T01:56:58;98255.94;;;20.70;78.58
30182;BME280;16990;49.056;9.240;2022-08-19T01:59:27;98272.31;;;20.56;79.57
30182;BME280;16990;49.056;9.240;2022-08-19T02:01:54;98256.94;;;20.52;79.87
30182;BME280;16990;49.056;9.240;2022-08-19T02:04:21;98259.00;;;20.69;79.46
30182;BME280;16990;49.056;9.240;2022-08-19T02:06:48;98250.28;;;20.58;79.90
30182;BME280;16990;49.056;9.240;2022-08-19T02:09:15;98260.16;;;20.31;80.75
30182;BME280;16990;49.056;9.240;2022-08-19T02:11:42;98260.16;;;20.31;80.95
30182;BME280;16990;49.056;9.240;2022-08-19T02:14:08;98275.19;;;20.37;80.57
30182;BME280;16990;49.056;9.240;2022-08-19T02:16:37;98271.44;;;20.70;79.82
30182;BME280;16990;49.056;9.240;2022-08-19T02:19:06;98270.03;;;20.50;80.52
30182;BME280;16990;49.056;9.240;2022-08-19T02:21:34;98274.13;;;20.38;80.73
30182;BME280;16990;49.056;9.240;2022-08-19T02:24:02;98269.22;;;20.49;80.52
30182;BME280;16990;49.056;9.240;2022-08-19T02:26:29;98263.13;;;20.44;80.52
30182;BME280;16990;49.056;9.240;2022-08-19T02:28:57;98260.66;;;20.56;80.62
30182;BME280;16990;49.056;9.240;2022-08-19T02:31:24;98271.03;;;20.31;81.25
30182;BME280;16990;49.056;9.240;2022-08-19T02:33:54;98263.56;;;20.37;81.66
30182;BME280;16990;49.056;9.240;2022-08-19T02:36:23;98269.16;;;20.18;82.05
30182;BME280;16990;49.056;9.240;2022-08-19T02:38:50;98270.22;;;20.08;82.50
30182;BME280;16990;49.056;9.240;2022-08-19T02:41:19;98278.59;;;19.98;83.45
30182;BME280;16990;49.056;9.240;2022-08-19T02:43:47;98281.00;;;20.00;83.36
30182;BME280;16990;49.056;9.240;2022-08-19T02:46:16;98277.97;;;20.01;83.35
30182;BME280;16990;49.056;9.240;2022-08-19T02:48:47;98276.34;;;20.14;82.90
30182;BME280;16990;49.056;9.240;2022-08-19T02:51:22;98269.25;;;20.04;83.97
30182;BME280;16990;49.056;9.240;2022-08-19T02:53:49;98273.59;;;19.91;84.24
30182;BME280;16990;49.056;9.240;2022-08-19T02:56:17;98267.78;;;19.84;85.05
30182;BME280;16990;49.056;9.240;2022-08-19T02:58:45;98264.72;;;20.00;84.48
30182;BME280;16990;49.056;9.240;2022-08-19T03:01:19;98264.47;;;19.87;84.49
30182;BME280;16990;49.056;9.240;2022-08-19T03:03:47;98259.91;;;19.96;84.23
30182;BME280;16990;49.056;9.240;2022-08-19T03:06:15;98252.50;;;19.88;84.56
30182;BME280;16990;49.056;9.240;2022-08-19T03:08:45;98255.88;;;19.71;85.72
30182;BME280;16990;49.056;9.240;2022-08-19T03:11:14;98263.25;;;19.80;84.77
30182;BME280;16990;49.056;9.240;2022-08-19T03:13:41;98262.22;;;19.89;84.72
30182;BME280;16990;49.056;9.240;2022-08-19T03:16:09;98259.91;;;19.96;84.37
30182;BME280;16990;49.056;9.240;2022-08-19T03:18:37;98256.16;;;19.70;85.69
30182;BME280;16990;49.056;9.240;2022-08-19T03:21:05;98262.69;;;19.83;85.61
30182;BME280;16990;49.056;9.240;2022-08-19T03:23:32;98254.84;;;19.81;85.38
30182;BME280;16990;49.056;9.240;2022-08-19T03:26:03;98266.97;;;19.84;84.98
30182;BME280;16990;49.056;9.240;2022-08-19T03:28:31;98276.03;;;19.79;85.62
30182;BME280;16990;49.056;9.240;2022-08-19T03:31:00;98279.88;;;19.78;85.43
30182;BME280;16990;49.056;9.240;2022-08-19T03:33:29;98278.63;;;19.84;85.39
30182;BME280;16990;49.056;9.240;2022-08-19T03:36:01;98284.84;;;19.85;85.45
30182;BME280;16990;49.056;9.240;2022-08-19T03:38:29;98287.28;;;19.72;86.28
30182;BME280;16990;49.056;9.240;2022-08-19T03:40:56;98294.03;;;19.61;87.02
30182;BME280;16990;49.056;9.240;2022-08-19T03:43:24;98296.34;;;19.68;86.47
30182;BME280;16990;49.056;9.240;2022-08-19T03:45:59;98281.28;;;19.62;86.82
30182;BME280;16990;49.056;9.240;2022-08-19T03:48:28;98272.63;;;19.60;87.02
30182;BME280;16990;49.056;9.240;2022-08-19T03:50:56;98284.09;;;19.57;87.52
30182;BME280;16990;49.056;9.240;2022-08-19T03:53:24;98281.50;;;19.51;88.14
30182;BME280;16990;49.056;9.240;2022-08-19T03:55:53;98289.50;;;19.57;87.82
30182;BME280;16990;49.056;9.240;2022-08-19T03:58:20;98283.09;;;19.52;87.92
30182;BME280;16990;49.056;9.240;2022-08-19T04:00:48;98285.97;;;19.84;86.82
30182;BME280;16990;49.056;9.240;2022-08-19T04:03:16;98280.78;;;19.60;87.31
30182;BME280;16990;49.056;9.240;2022-08-19T04:05:44;98282.28;;;19.66;87.22
30182;BME280;16990;49.056;9.240;2022-08-19T04:08:12;98276.53;;;19.67;87.40
30182;BME280;16990;49.056;9.240;2022-08-19T04:10:41;98286.47;;;19.58;87.80
30182;BME280;16990;49.056;9.240;2022-08-19T04:13:07;98272.44;;;19.70;87.26
30182;BME280;16990;49.056;9.240;2022-08-19T04:15:39;98281.16;;;19.67;86.87
30182;BME280;16990;49.056;9.240;2022-08-19T04:18:08;98277.16;;;19.78;86.07
30182;BME280;16990;49.056;9.240;2022-08-19T04:20:41;98282.69;;;19.59;87.19
30182;BME280;16990;49.056;9.240;2022-08-19T04:23:08;98280.56;;;19.56;87.82
30182;BME280;16990;49.056;9.240;2022-08-19T04:25:37;98281.69;;;19.41;88.46
30182;BME280;16990;49.056;9.240;2022-08-19T04:28:04;98288.34;;;19.35;89.34
30182;BME280;16990;49.056;9.240;2022-08-19T04:30:38;98281.69;;;19.41;89.01
30182;BME280;16990;49.056;9.240;2022-08-19T04:33:05;98291.03;;;19.35;89.59
30182;BME280;16990;49.056;9.240;2022-08-19T04:35:37;98269.94;;;19.32;89.57
30182;BME280;16990;49.056;9.240;2022-08-19T04:38:04;98282.59;;;19.37;89.55
30182;BME280;16990;49.056;9.240;2022-08-19T04:40:31;98270.31;;;19.53;88.85
30182;BME280;16990;49.056;9.240;2022-08-19T04:43:15;98270.41;;;19.62;88.50
30182;BME280;16990;49.056;9.240;2022-08-19T04:45:43;98262.59;;;19.46;88.98
30182;BME280;16990;49.056;9.240;2022-08-19T04:48:11;98266.03;;;19.38;89.80
30182;BME280;16990;49.056;9.240;2022-08-19T04:50:41;98264.63;;;19.27;90.53
30182;BME280;16990;49.056;9.240;2022-08-19T04:53:09;98273.25;;;19.29;90.34
30182;BME280;16990;49.056;9.240;2022-08-19T04:55:40;98279.91;;;19.23;90.86
30182;BME280;16990;49.056;9.240;2022-08-19T04:58:07;98284.72;;;19.26;90.37
30182;BME280;16990;49.056;9.240;2022-08-19T05:00:38;98279.09;;;19.36;89.73
30182;BME280;16990;49.056;9.240;2022-08-19T05:03:04;98279.69;;;19.05;91.21
30182;BME280;16990;49.056;9.240;2022-08-19T05:05:31;98283.63;;;19.13;90.65
30182;BME280;16990;49.056;9.240;2022-08-19T05:07:59;98297.94;;;19.27;90.28
30182;BME280;16990;49.056;9.240;2022-08-19T05:10:26;98299.75;;;19.32;89.92
30182;BME280;16990;49.056;9.240;2022-08-19T05:12:53;98300.78;;;19.36;89.76
30182;BME280;16990;49.056;9.240;2022-08-19T05:15:19;98307.19;;;19.40;89.99
30182;BME280;16990;49.056;9.240;2022-08-19T05:17:46;98304.78;;;19.39;90.25
30182;BME280;16990;49.056;9.240;2022-08-19T05:20:27;98307.31;;;19.35;90.96
30182;BME280;16990;49.056;9.240;2022-08-19T05:23:12;98310.53;;;19.37;90.33
30182;BME280;16990;49.056;9.240;2022-08-19T05:25:42;98319.84;;;19.31;90.84
30182;BME280;16990;49.056;9.240;2022-08-19T05:28:09;98306.06;;;19.27;91.33
30182;BME280;16990;49.056;9.240;2022-08-19T05:30:36;98316.13;;;19.54;89.96
30182;BME280;16990;49.056;9.240;2022-08-19T05:33:03;98322.47;;;19.36;90.53
30182;BME280;16990;49.056;9.240;2022-08-19T05:35:29;98328.28;;;19.43;89.81
30182;BME280;16990;49.056;9.240;2022-08-19T05:37:56;98319.03;;;19.17;91.00
30182;BME280;16990;49.056;9.240;2022-08-19T05:40:24;98327.69;;;19.32;90.32
30182;BME280;16990;49.056;9.240;2022-08-19T05:42:51;98357.19;;;19.48;90.35
30182;BME280;16990;49.056;9.240;2022-08-19T05:45:18;98353.19;;;19.45;89.90
30182;BME280;16990;49.056;9.240;2022-08-19T05:47:45;98363.00;;;19.41;90.76
30182;BME280;16990;49.056;9.240;2022-08-19T05:50:12;98371.66;;;19.43;90.98
30182;BME280;16990;49.056;9.240;2022-08-19T05:52:39;98369.03;;;19.38;90.38
30182;BME280;16990;49.056;9.240;2022-08-19T05:55:06;98362.94;;;19.32;91.63
30182;BME280;16990;49.056;9.240;2022-08-19T05:57:34;98382.09;;;19.50;90.40
30182;BME280;16990;49.056;9.240;2022-08-19T06:00:02;98379.50;;;19.59;89.98
30182;BME280;16990;49.056;9.240;2022-08-19T06:02:33;98383.41;;;19.52;89.84
30182;BME280;16990;49.056;9.240;2022-08-19T06:05:00;98382.63;;;19.52;89.85
30182;BME280;16990;49.056;9.240;2022-08-19T06:07:27;98383.13;;;19.54;89.76
30182;BME280;16990;49.056;9.240;2022-08-19T06:09:54;98386.81;;;19.58;89.70
30182;BME280;16990;49.056;9.240;2022-08-19T06:12:21;98397.09;;;19.61;89.81
30182;BME280;16990;49.056;9.240;2022-08-19T06:14:53;98370.75;;;19.62;88.71
30182;BME280;16990;49.056;9.240;2022-08-19T06:17:20;98342.03;;;19.47;88.39
30182;BME280;16990;49.056;9.240;2022-08-19T06:19:50;98374.09;;;19.59;89.23
30182;BME280;16990;49.056;9.240;2022-08-19T06:22:17;98369.88;;;19.80;88.30
30182;BME280;16990;49.056;9.240;2022-08-19T06:24:43;98373.69;;;19.51;89.63
30182;BME280;16990;49.056;9.240;2022-08-19T06:27:10;98359.41;;;19.60;88.65
30182;BME280;16990;49.056;9.240;2022-08-19T06:29:37;98372.97;;;19.60;89.05
30182;BME280;16990;49.056;9.240;2022-08-19T06:32:06;98373.19;;;19.77;88.96
30182;BME280;16990;49.056;9.240;2022-08-19T06:34:33;98370.25;;;19.60;89.50
30182;BME280;16990;49.056;9.240;2022-08-19T06:37:01;98380.19;;;19.50;90.64
30182;BME280;16990;49.056;9.240;2022-08-19T06:39:30;98379.50;;;19.59;90.49
30182;BME280;16990;49.056;9.240;2022-08-19T06:41:59;98375.31;;;19.80;88.68
30182;BME280;16990;49.056;9.240;2022-08-19T06:44:29;98375.59;;;19.79;89.33
30182;BME280;16990;49.056;9.240;2022-08-19T06:47:02;98373.28;;;19.86;88.56
30182;BME280;16990;49.056;9.240;2022-08-19T06:49:31;98375.59;;;19.79;88.28
30182;BME280;16990;49.056;9.240;2022-08-19T06:51:59;98369.47;;;19.59;88.98
30182;BME280;16990;49.056;9.240;2022-08-19T06:54:27;98374.50;;;19.66;88.29
30182;BME280;16990;49.056;9.240;2022-08-19T06:56:55;98388.75;;;19.85;87.87
30182;BME280;16990;49.056;9.240;2022-08-19T06:59:23;98388.94;;;20.03;86.71
30182;BME280;16990;49.056;9.240;2022-08-19T07:01:54;98392.00;;;19.73;87.29
30182;BME280;16990;49.056;9.240;2022-08-19T07:04:23;98372.59;;;19.80;87.75
30182;BME280;16990;49.056;9.240;2022-08-19T07:06:57;98378.09;;;19.75;87.19
30182;BME280;16990;49.056;9.240;2022-08-19T07:09:24;98381.53;;;19.94;87.21
30182;BME280;16990;49.056;9.240;2022-08-19T07:11:52;98380.06;;;20.11;86.14
30182;BME280;16990;49.056;9.240;2022-08-19T07:14:22;98371.16;;;19.96;86.60
30182;BME280;16990;49.056;9.240;2022-08-19T07:16:50;98378.09;;;20.03;86.37
30182;BME280;16990;49.056;9.240;2022-08-19T07:19:20;98385.16;;;19.90;86.58
30182;BME280;16990;49.056;9.240;2022-08-19T07:21:49;98371.47;;;19.81;86.79
30182;BME280;16990;49.056;9.240;2022-08-19T07:24:20;98362.22;;;19.82;86.52
30182;BME280;16990;49.056;9.240;2022-08-19T07:26:50;98370.28;;;19.87;86.72
30182;BME280;16990;49.056;9.240;2022-08-19T07:29:19;98381.31;;;20.05;86.27
30182;BME280;16990;49.056;9.240;2022-08-19T07:31:48;98406.81;;;20.04;86.08
30182;BME280;16990;49.056;9.240;2022-08-19T07:34:15;98377.47;;;19.92;86.44
30182;BME280;16990;49.056;9.240;2022-08-19T07:36:43;98392.94;;;20.05;85.94
30182;BME280;16990;49.056;9.240;2022-08-19T07:39:17;98387.03;;;19.89;86.05
30182;BME280;16990;49.056;9.240;2022-08-19T07:41:46;98390.19;;;19.83;86.57
30182;BME280;16990;49.056;9.240;2022-08-19T07:44:14;98391.16;;;20.01;86.39
30182;BME280;16990;49.056;9.240;2022-08-19T07:46:50;98378.88;;;20.03;85.93
30182;BME280;16990;49.056;9.240;2022-08-19T07:49:18;98394.13;;;20.13;86.17
30182;BME280;16990;49.056;9.240;2022-08-19T07:51:45;98408.19;;;20.29;85.53
30182;BME280;16990;49.056;9.240;2022-08-19T07:54:12;98382.56;;;20.21;85.37
30182;BME280;16990;49.056;9.240;2022-08-19T07:56:39;98399.84;;;20.25;85.95
30182;BME280;16990;49.056;9.240;2022-08-19T07:59:07;98385.16;;;19.90;87.60
30182;BME280;16990;49.056;9.240;2022-08-19T08:01:35;98396.31;;;20.25;86.15
30182;BME280;16990;49.056;9.240;2022-08-19T08:04:02;98403.75;;;20.33;86.36
30182;BME280;16990;49.056;9.240;2022-08-19T08:06:46;98416.31;;;20.43;85.66
30182;BME280;16990;49.056;9.240;2022-08-19T08:09:32;98404.16;;;20.40;85.48
30182;BME280;16990;49.056;9.240;2022-08-19T08:12:08;98404.81;;;20.46;85.58
30182;BME280;16990;49.056;9.240;2022-08-19T08:14:39;98392.31;;;20.22;86.16
30182;BME280;16990;49.056;9.240;2022-08-19T08:17:08;98376.25;;;20.12;86.33
30182;BME280;16990;49.056;9.240;2022-08-19T08:19:35;98380.72;;;20.30;85.78
30182;BME280;16990;49.056;9.240;2022-08-19T08:22:03;98417.56;;;20.59;85.43
30182;BME280;16990;49.056;9.240;2022-08-19T08:24:31;98417.56;;;20.59;85.78
30182;BME280;16990;49.056;9.240;2022-08-19T08:26:59;98396.78;;;20.40;84.94
30182;BME280;16990;49.056;9.240;2022-08-19T08:29:29;98427.63;;;20.58;85.20
30182;BME280;16990;49.056;9.240;2022-08-19T08:31:57;98407.72;;;20.49;85.29
30182;BME280;16990;49.056;9.240;2022-08-19T08:34:24;98406.16;;;20.34;85.88
30182;BME280;16990;49.056;9.240;2022-08-19T08:36:50;98424.38;;;20.70;85.22
30182;BME280;16990;49.056;9.240;2022-08-19T08:39:20;98424.41;;;20.56;85.81
30182;BME280;16990;49.056;9.240;2022-08-19T08:41:53;98405.91;;;20.45;85.69
30182;BME280;16990;49.056;9.240;2022-08-19T08:44:23;98413.97;;;20.50;85.75
30182;BME280;16990;49.056;9.240;2022-08-19T08:46:58;98391.25;;;20.46;86.24
30182;BME280;16990;49.056;9.240;2022-08-19T08:49:31;98427.03;;;20.84;85.28
30182;BME280;16990;49.056;9.240;2022-08-19T08:52:03;98421.91;;;20.82;85.13
30182;BME280;16990;49.056;9.240;2022-08-19T08:54:35;98421.53;;;20.75;85.37
30182;BME280;16990;49.056;9.240;2022-08-19T08:57:04;98384.75;;;20.69;85.30
30182;BME280;16990;49.056;9.240;2022-08-19T08:59:36;98398.22;;;20.74;85.12
30182;BME280;16990;49.056;9.240;2022-08-19T09:02:05;98415.22;;;21.11;84.47
30182;BME280;16990;49.056;9.240;2022-08-19T09:04:33;98395.31;;;21.24;83.81
30182;BME280;16990;49.056;9.240;2022-08-19T09:07:13;98417.22;;;21.51;82.50
30182;BME280;16990;49.056;9.240;2022-08-19T09:09:45;98409.72;;;21.56;81.98
30182;BME280;16990;49.056;9.240;2022-08-19T09:12:17;98410.47;;;21.88;81.33
30182;BME280;16990;49.056;9.240;2022-08-19T09:14:52;98408.84;;;21.70;80.77
30182;BME280;16990;49.056;9.240;2022-08-19T09:17:24;98400.53;;;21.75;80.85
30182;BME280;16990;49.056;9.240;2022-08-19T09:19:58;98397.84;;;21.92;80.57
30182;BME280;16990;49.056;9.240;2022-08-19T09:22:30;98406.81;;;21.93;80.02
30182;BME280;16990;49.056;9.240;2022-08-19T09:24:57;98411.13;;;21.94;80.52
30182;BME280;16990;49.056;9.240;2022-08-19T09:27:25;98406.53;;;22.03;79.90
30182;BME280;16990;49.056;9.240;2022-08-19T09:29:52;98391.91;;;21.81;79.84
30182;BME280;16990;49.056;9.240;2022-08-19T09:32:21;98420.94;;;22.03;79.80
30182;BME280;16990;49.056;9.240;2022-08-19T09:34:48;98416.59;;;22.02;79.30
30182;BME280;16990;49.056;9.240;2022-08-19T09:37:15;98411.00;;;21.99;79.82
30182;BME280;16990;49.056;9.240;2022-08-19T09:39:41;98420.28;;;22.06;79.73
30182;BME280;16990;49.056;9.240;2022-08-19T09:42:09;98417.59;;;22.15;79.64
30182;BME280;16990;49.056;9.240;2022-08-19T09:44:37;98398.69;;;22.10;79.51
30182;BME280;16990;49.056;9.240;2022-08-19T09:47:04;98420.19;;;22.20;78.88
30182;BME280;16990;49.056;9.240;2022-08-19T09:49:33;98421.13;;;22.16;79.32
30182;BME280;16990;49.056;9.240;2022-08-19T09:52:00;98420.19;;;22.20;78.98
30182;BME280;16990;49.056;9.240;2022-08-19T09:54:27;98421.88;;;22.07;79.40
30182;BME280;16990;49.056;9.240;2022-08-19T09:56:55;98407.28;;;21.95;79.01
30182;BME280;16990;49.056;9.240;2022-08-19T09:59:26;98426.06;;;22.14;79.27
30182;BME280;16990;49.056;9.240;2022-08-19T10:01:53;98428.84;;;22.22;79.20
30182;BME280;16990;49.056;9.240;2022-08-19T10:04:20;98429.78;;;22.26;78.82
30182;BME280;16990;49.056;9.240;2022-08-19T10:06:49;98427.06;;;22.18;78.31
30182;BME280;16990;49.056;9.240;2022-08-19T10:09:17;98441.75;;;22.17;78.90
30182;BME280;16990;49.056;9.240;2022-08-19T10:11:45;98424.34;;;22.26;78.30
30182;BME280;16990;49.056;9.240;2022-08-19T10:14:15;98431.81;;;22.12;78.57
30182;BME280;16990;49.056;9.240;2022-08-19T10:16:42;98428.34;;;22.29;78.40
30182;BME280;16990;49.056;9.240;2022-08-19T10:19:09;98438.09;;;22.13;78.51
30182;BME280;16990;49.056;9.240;2022-08-19T10:21:36;98435.53;;;22.16;79.07
30182;BME280;16990;49.056;9.240;2022-08-19T10:24:05;98426.56;;;22.16;78.67
30182;BME280;16990;49.056;9.240;2022-08-19T10:26:35;98423.88;;;22.33;77.75
30182;BME280;16990;49.056;9.240;2022-08-19T10:29:03;98383.16;;;22.19;77.82
30182;BME280;16990;49.056;9.240;2022-08-19T10:31:32;98413.16;;;22.37;77.93
30182;BME280;16990;49.056;9.240;2022-08-19T10:33:59;98381.28;;;22.37;76.46
30182;BME280;16990;49.056;9.240;2022-08-19T10:36:29;98400.66;;;22.88;75.78
30182;BME280;16990;49.056;9.240;2022-08-19T10:38:58;98411.38;;;23.10;74.89
30182;BME280;16990;49.056;9.240;2022-08-19T10:41:30;98399.16;;;23.17;73.67
30182;BME280;16990;49.056;9.240;2022-08-19T10:43:59;98404.06;;;23.49;71.96
30182;BME280;16990;49.056;9.240;2022-08-19T10:46:27;98409.75;;;23.74;69.16
30182;BME280;16990;49.056;9.240;2022-08-19T10:48:58;98397.38;;;23.76;66.25
30182;BME280;16990;49.056;9.240;2022-08-19T10:51:25;98401.03;;;23.33;66.92
30182;BME280;16990;49.056;9.240;2022-08-19T10:54:09;98391.59;;;23.69;65.46
30182;BME280;16990;49.056;9.240;2022-08-19T10:56:38;98393.47;;;23.86;64.91
30182;BME280;16990;49.056;9.240;2022-08-19T10:59:20;98394.59;;;23.85;64.21
30182;BME280;16990;49.056;9.240;2022-08-19T11:01:48;98402.25;;;23.92;64.32
30182;BME280;16990;49.056;9.240;2022-08-19T11:04:15;98401.41;;;24.00;63.30
30182;BME280;16990;49.056;9.240;2022-08-19T11:06:43;98396.22;;;23.77;63.79
30182;BME280;16990;49.056;9.240;2022-08-19T11:09:11;98397.69;;;23.75;63.99
30182;BME280;16990;49.056;9.240;2022-08-19T11:11:39;98407.16;;;23.77;63.92
30182;BME280;16990;49.056;9.240;2022-08-19T11:14:07;98399.53;;;23.92;62.85
30182;BME280;16990;49.056;9.240;2022-08-19T11:16:33;98391.53;;;23.87;62.68
30182;BME280;16990;49.056;9.240;2022-08-19T11:19:00;98393.84;;;23.67;63.48
30182;BME280;16990;49.056;9.240;2022-08-19T11:21:28;98390.44;;;23.70;62.93
30182;BME280;16990;49.056;9.240;2022-08-19T11:24:01;98393.84;;;23.76;62.69
30182;BME280;16990;49.056;9.240;2022-08-19T11:26:30;98390.59;;;23.83;63.44
30182;BME280;16990;49.056;9.240;2022-08-19T11:28:59;98395.69;;;23.93;62.69
30182;BME280;16990;49.056;9.240;2022-08-19T11:31:28;98388.09;;;23.98;62.11
30182;BME280;16990;49.056;9.240;2022-08-19T11:33:56;98394.69;;;23.97;61.83
30182;BME280;16990;49.056;9.240;2022-08-19T11:36:25;98387.97;;;23.95;61.87
30182;BME280;16990;49.056;9.240;2022-08-19T11:38:52;98385.84;;;24.01;60.80
30182;BME280;16990;49.056;9.240;2022-08-19T11:41:21;98393.69;;;24.02;61.17
30182;BME280;16990;49.056;9.240;2022-08-19T11:43:48;98386.91;;;24.08;60.45
30182;BME280;16990;49.056;9.240;2022-08-19T11:46:16;98395.69;;;23.93;60.62
30182;BME280;16990;49.056;9.240;2022-08-19T11:48:43;98394.72;;;23.89;61.34
30182;BME280;16990;49.056;9.240;2022-08-19T11:51:13;98395.22;;;23.91;61.16
30182;BME280;16990;49.056;9.240;2022-08-19T11:53:41;98393.78;;;23.85;61.10
30182;BME280;16990;49.056;9.240;2022-08-19T11:56:09;98383.13;;;23.92;60.81
30182;BME280;16990;49.056;9.240;2022-08-19T11:58:36;98397.75;;;23.96;60.91
30182;BME280;16990;49.056;9.240;2022-08-19T12:01:05;98396.75;;;24.01;61.19
30182;BME280;16990;49.056;9.240;2022-08-19T12:03:33;98395.16;;;23.99;60.99
30182;BME280;16990;49.056;9.240;2022-08-19T12:06:03;98396.44;;;24.02;61.23
30182;BME280;16990;49.056;9.240;2022-08-19T12:08:30;98398.66;;;24.30;60.20
30182;BME280;16990;49.056;9.240;2022-08-19T12:10:57;98400.38;;;24.34;59.97
30182;BME280;16990;49.056;9.240;2022-08-19T12:13:26;98400.16;;;24.48;60.47
30182;BME280;16990;49.056;9.240;2022-08-19T12:15:53;98402.19;;;24.72;59.19
30182;BME280;16990;49.056;9.240;2022-08-19T12:18:20;98388.69;;;24.55;59.15
30182;BME280;16990;49.056;9.240;2022-08-19T12:20:51;98384.78;;;24.77;58.55
30182;BME280;16990;49.056;9.240;2022-08-19T12:23:18;98396.66;;;24.81;58.23
30182;BME280;16990;49.056;9.240;2022-08-19T12:25:47;98397.94;;;24.62;59.03
30182;BME280;16990;49.056;9.240;2022-08-19T12:28:15;98382.81;;;24.65;59.00
30182;BME280;16990;49.056;9.240;2022-08-19T12:30:42;98381.31;;;24.89;58.28
30182;BME280;16990;49.056;9.240;2022-08-19T12:33:09;98385.59;;;24.77;58.58
30182;BME280;16990;49.056;9.240;2022-08-19T12:35:39;98393.06;;;24.68;58.99
30182;BME280;16990;49.056;9.240;2022-08-19T12:38:07;98377.41;;;24.56;60.63
30182;BME280;16990;49.056;9.240;2022-08-19T12:40:34;98386.81;;;24.68;60.80
30182;BME280;16990;49.056;9.240;2022-08-19T12:43:00;98390.41;;;24.59;60.74
30182;BME280;16990;49.056;9.240;2022-08-19T12:45:27;98384.81;;;24.56;59.96
30182;BME280;16990;49.056;9.240;2022-08-19T12:47:54;98381.50;;;24.50;60.57
30182;BME280;16990;49.056;9.240;2022-08-19T12:50:21;98393.81;;;24.56;60.22
30182;BME280;16990;49.056;9.240;2022-08-19T12:52:48;98380.53;;;25.00;58.95
30182;BME280;16990;49.056;9.240;2022-08-19T12:55:16;98388.00;;;24.79;59.13
30182;BME280;16990;49.056;9.240;2022-08-19T12:57:44;98389.53;;;25.01;58.64
30182;BME280;16990;49.056;9.240;2022-08-19T13:00:13;98395.97;;;24.84;60.31
30182;BME280;16990;49.056;9.240;2022-08-19T13:02:42;98399.19;;;24.86;60.00
30182;BME280;16990;49.056;9.240;2022-08-19T13:05:12;98406.06;;;24.71;57.92
30182;BME280;16990;49.056;9.240;2022-08-19T13:07:41;98396.53;;;24.77;58.29